createdAt,value
2023-04-27T00:01:13.624Z,5.10
2023-04-27T00:03:41.360Z,5.10
2023-04-27T00:06:09.531Z,5.00
2023-04-27T00:08:36.284Z,5.00
2023-04-27T00:11:03.435Z,5.00
2023-04-27T00:13:30.080Z,4.90
2023-04-27T00:15:56.810Z,4.90
2023-04-27T00:18:23.505Z,4.90
2023-04-27T00:20:50.280Z,4.70
2023-04-27T00:23:17.121Z,4.80
2023-04-27T00:25:43.771Z,4.80
2023-04-27T00:28:10.558Z,4.80
2023-04-27T00:30:37.287Z,4.90
2023-04-27T00:33:04.174Z,4.90
2023-04-27T00:35:32.795Z,4.80
2023-04-27T00:37:59.552Z,4.80
2023-04-27T00:40:26.960Z,4.70
2023-04-27T00:42:53.614Z,4.60
2023-04-27T00:45:20.530Z,4.50
2023-04-27T00:47:47.327Z,4.40
2023-04-27T00:50:14.883Z,4.30
2023-04-27T00:52:41.957Z,4.30
2023-04-27T00:55:09.482Z,4.30
2023-04-27T00:57:36.215Z,4.30
2023-04-27T01:00:07.020Z,4.30
2023-04-27T01:02:36.042Z,4.30
2023-04-27T01:05:03.791Z,4.20
2023-04-27T01:07:30.484Z,4.30
2023-04-27T01:09:58.130Z,4.20
2023-04-27T01:12:25.086Z,4.20
2023-04-27T01:14:51.788Z,4.30
2023-04-27T01:17:18.442Z,4.30
2023-04-27T01:19:45.193Z,4.30
2023-04-27T01:22:12.081Z,4.30
2023-04-27T01:24:38.805Z,4.20
2023-04-27T01:27:05.717Z,4.20
2023-04-27T01:29:32.516Z,4.20
2023-04-27T01:31:59.318Z,4.30
2023-04-27T01:34:25.964Z,4.30
2023-04-27T01:36:52.598Z,4.20
2023-04-27T01:39:21.418Z,4.20
2023-04-27T01:41:48.124Z,4.20
2023-04-27T01:44:14.855Z,4.20
2023-04-27T01:46:42.125Z,4.20
2023-04-27T01:49:08.855Z,4.30
2023-04-27T01:51:35.579Z,4.40
2023-04-27T01:54:02.239Z,4.50
2023-04-27T01:56:28.902Z,4.50
2023-04-27T01:58:56.003Z,4.50
2023-04-27T02:01:22.901Z,4.50
2023-04-27T02:03:50.000Z,4.50
2023-04-27T02:06:16.816Z,4.60
2023-04-27T02:08:43.481Z,4.60
2023-04-27T02:11:10.244Z,4.70
2023-04-27T02:13:36.884Z,4.80
2023-04-27T02:16:05.177Z,4.80
2023-04-27T02:18:33.662Z,4.80
2023-04-27T02:21:00.664Z,4.70
2023-04-27T02:23:27.507Z,4.60
2023-04-27T02:25:54.195Z,4.60
2023-04-27T02:28:20.883Z,4.50
2023-04-27T02:30:48.027Z,4.60
2023-04-27T02:33:14.682Z,4.50
2023-04-27T02:35:41.332Z,4.50
2023-04-27T02:38:08.007Z,4.50
2023-04-27T02:40:37.483Z,4.30
2023-04-27T02:43:06.331Z,4.30
2023-04-27T02:45:37.077Z,4.30
2023-04-27T02:48:06.021Z,4.30
2023-04-27T02:50:34.058Z,4.40
2023-04-27T02:53:00.882Z,4.40
2023-04-27T02:55:27.946Z,4.50
2023-04-27T02:57:54.773Z,4.60
2023-04-27T03:00:21.956Z,4.60
2023-04-27T03:02:48.789Z,4.70
2023-04-27T03:05:16.221Z,4.70
2023-04-27T03:07:42.879Z,4.70
2023-04-27T03:10:09.909Z,4.60
2023-04-27T03:12:36.798Z,4.70
2023-04-27T03:15:04.058Z,4.80
2023-04-27T03:17:31.391Z,4.80
2023-04-27T03:19:58.048Z,4.80
2023-04-27T03:22:24.827Z,4.70
2023-04-27T03:24:51.443Z,4.70
2023-04-27T03:27:18.085Z,4.70
2023-04-27T03:29:44.863Z,4.70
2023-04-27T03:32:11.740Z,4.80
2023-04-27T03:34:38.431Z,4.70
2023-04-27T03:37:06.273Z,4.80
2023-04-27T03:39:36.813Z,4.70
2023-04-27T03:42:04.052Z,4.70
2023-04-27T03:44:34.155Z,4.70
2023-04-27T03:47:01.854Z,4.80
2023-04-27T03:49:28.934Z,4.80
2023-04-27T03:51:56.220Z,4.90
2023-04-27T03:54:22.878Z,4.90
2023-04-27T03:56:49.827Z,4.90
2023-04-27T03:59:18.310Z,4.90
2023-04-27T04:01:49.306Z,4.90
2023-04-27T04:04:16.793Z,4.90
2023-04-27T04:06:43.631Z,4.90
2023-04-27T04:09:12.822Z,5.00
2023-04-27T04:11:40.193Z,5.00
2023-04-27T04:14:09.158Z,5.00
2023-04-27T04:16:35.862Z,5.00
2023-04-27T04:19:02.493Z,5.00
2023-04-27T04:21:29.231Z,5.00
2023-04-27T04:23:56.307Z,5.10
2023-04-27T04:26:23.512Z,5.10
2023-04-27T04:28:50.118Z,5.10
2023-04-27T04:31:18.162Z,5.10
2023-04-27T04:33:44.934Z,5.20
2023-04-27T04:36:11.635Z,5.30
2023-04-27T04:38:38.406Z,5.30
2023-04-27T04:41:05.268Z,5.30
2023-04-27T04:43:33.276Z,5.40
2023-04-27T04:46:03.477Z,5.40
2023-04-27T04:48:30.203Z,5.40
2023-04-27T04:50:57.256Z,5.50
2023-04-27T04:53:23.974Z,5.60
2023-04-27T04:55:50.697Z,5.60
2023-04-27T04:58:17.412Z,5.60
2023-04-27T05:00:44.401Z,5.60
2023-04-27T05:03:11.471Z,5.70
2023-04-27T05:05:38.437Z,5.80
2023-04-27T05:08:05.219Z,5.80
2023-04-27T05:10:31.972Z,5.80
2023-04-27T05:12:58.667Z,5.90
2023-04-27T05:15:25.398Z,5.90
2023-04-27T05:17:54.064Z,6.00
2023-04-27T05:20:21.222Z,6.10
2023-04-27T05:22:47.922Z,6.20
2023-04-27T05:25:14.646Z,6.10
2023-04-27T05:27:41.357Z,6.20
2023-04-27T05:30:08.610Z,6.40
2023-04-27T05:32:37.231Z,6.60
2023-04-27T05:35:05.327Z,6.60
2023-04-27T05:37:32.097Z,6.70
2023-04-27T05:39:59.008Z,6.90
2023-04-27T05:42:25.672Z,7.00
2023-04-27T05:44:52.622Z,7.10
2023-04-27T05:47:19.328Z,7.30
2023-04-27T05:49:51.548Z,7.70
2023-04-27T05:52:19.124Z,7.90
2023-04-27T05:54:49.684Z,7.90
2023-04-27T05:57:16.667Z,8.00
2023-04-27T05:59:43.333Z,8.00
2023-04-27T06:02:10.032Z,8.00
2023-04-27T06:04:37.210Z,7.80
2023-04-27T06:07:16.145Z,7.80
2023-04-27T06:09:43.094Z,7.70
2023-04-27T06:12:09.856Z,7.70
2023-04-27T06:14:37.836Z,7.90
2023-04-27T06:17:04.593Z,7.90
2023-04-27T06:19:31.695Z,8.00
2023-04-27T06:21:58.381Z,8.10
2023-04-27T06:24:25.035Z,8.10
2023-04-27T06:26:51.771Z,8.30
2023-04-27T06:29:18.391Z,8.50
2023-04-27T06:31:45.124Z,8.70
2023-04-27T06:34:11.872Z,8.70
2023-04-27T06:36:38.610Z,9.10
2023-04-27T06:39:05.287Z,9.30
2023-04-27T06:41:33.725Z,9.30
2023-04-27T06:44:00.482Z,9.50
2023-04-27T06:46:27.431Z,10.00
2023-04-27T06:48:54.182Z,10.00
2023-04-27T06:51:20.896Z,10.60
2023-04-27T06:53:47.782Z,10.90
2023-04-27T06:56:14.418Z,11.30
2023-04-27T06:58:41.229Z,11.20
2023-04-27T07:01:08.026Z,10.80
2023-04-27T07:03:36.572Z,10.70
2023-04-27T07:06:03.661Z,10.60
2023-04-27T07:08:30.597Z,11.00
2023-04-27T07:10:57.322Z,11.50
2023-04-27T07:13:23.956Z,11.90
2023-04-27T07:15:57.854Z,12.00
2023-04-27T07:18:25.888Z,12.10
2023-04-27T07:20:52.550Z,12.10
2023-04-27T07:23:19.163Z,12.00
2023-04-27T07:25:46.151Z,12.10
2023-04-27T07:28:13.243Z,12.50
2023-04-27T07:30:40.542Z,12.70
2023-04-27T07:33:07.546Z,12.70
2023-04-27T07:35:34.577Z,12.70
2023-04-27T07:38:03.951Z,12.90
2023-04-27T07:40:32.746Z,12.70
2023-04-27T07:42:59.812Z,12.90
2023-04-27T07:45:33.048Z,12.80
2023-04-27T07:48:00.459Z,12.20
2023-04-27T07:50:28.427Z,12.30
2023-04-27T07:52:55.197Z,12.20
2023-04-27T07:55:23.492Z,12.30
2023-04-27T07:57:52.988Z,12.40
2023-04-27T08:00:20.493Z,12.20
2023-04-27T08:02:47.427Z,12.20
2023-04-27T08:05:14.961Z,12.30
2023-04-27T08:07:44.388Z,12.30
2023-04-27T08:10:12.127Z,12.20
2023-04-27T08:12:38.789Z,12.40
2023-04-27T08:15:07.443Z,12.40
2023-04-27T08:17:34.755Z,12.80
2023-04-27T08:20:01.501Z,12.80
2023-04-27T08:22:28.194Z,12.80
2023-04-27T08:24:54.874Z,13.00
2023-04-27T08:27:21.529Z,13.20
2023-04-27T08:29:48.803Z,13.50
2023-04-27T08:32:16.291Z,13.70
2023-04-27T08:34:44.816Z,13.80
2023-04-27T08:37:11.640Z,13.70
2023-04-27T08:39:38.430Z,13.80
2023-04-27T08:42:12.431Z,13.90
2023-04-27T08:44:43.484Z,14.20
2023-04-27T08:47:10.754Z,14.00
2023-04-27T08:49:43.934Z,14.10
2023-04-27T08:52:12.647Z,13.80
2023-04-27T08:54:39.501Z,13.80
2023-04-27T08:57:13.637Z,13.50
2023-04-27T08:59:40.851Z,13.70
2023-04-27T09:02:21.621Z,13.70
2023-04-27T09:04:48.611Z,13.90
2023-04-27T09:07:17.644Z,13.70
2023-04-27T09:09:45.306Z,13.80
2023-04-27T09:12:21.993Z,14.30
2023-04-27T09:14:59.381Z,14.50
2023-04-27T09:17:27.739Z,14.40
2023-04-27T09:20:08.985Z,14.40
2023-04-27T09:22:54.965Z,14.00
2023-04-27T09:25:30.061Z,14.20
2023-04-27T09:27:58.474Z,14.40
2023-04-27T09:30:26.437Z,14.60
2023-04-27T09:32:54.415Z,14.30
2023-04-27T09:35:26.254Z,14.60
2023-04-27T09:37:54.169Z,15.00
2023-04-27T09:40:29.681Z,15.50
2023-04-27T09:42:58.025Z,15.70
2023-04-27T09:45:25.724Z,16.00
2023-04-27T09:47:53.311Z,16.30
2023-04-27T09:50:21.896Z,16.20
2023-04-27T09:52:48.722Z,16.00
2023-04-27T09:55:41.000Z,16.00
2023-04-27T09:58:37.404Z,16.40
2023-04-27T10:01:29.229Z,16.80
2023-04-27T10:04:12.002Z,17.10
2023-04-27T10:06:59.222Z,16.80
2023-04-27T10:09:30.340Z,16.90
2023-04-27T10:11:57.243Z,16.90
2023-04-27T10:14:24.727Z,17.30
2023-04-27T10:16:56.491Z,17.50
2023-04-27T10:19:24.803Z,17.60
2023-04-27T10:22:07.961Z,17.50
2023-04-27T10:24:36.747Z,17.50
2023-04-27T10:27:05.771Z,17.50
2023-04-27T10:29:40.186Z,17.60
2023-04-27T10:32:34.168Z,17.50
2023-04-27T10:35:08.814Z,17.50
2023-04-27T10:37:41.302Z,17.30
2023-04-27T10:40:14.625Z,17.50
2023-04-27T10:42:42.150Z,17.40
2023-04-27T10:45:09.450Z,17.70
2023-04-27T10:47:44.236Z,17.90
2023-04-27T10:50:13.524Z,17.90
2023-04-27T10:52:41.800Z,18.10
2023-04-27T10:55:16.281Z,17.80
2023-04-27T10:57:47.914Z,17.80
2023-04-27T11:00:18.879Z,18.00
2023-04-27T11:02:45.600Z,17.80
2023-04-27T11:05:20.249Z,17.70
2023-04-27T11:07:47.886Z,17.40
2023-04-27T11:10:21.101Z,16.90
2023-04-27T11:12:47.940Z,17.00
2023-04-27T11:15:14.695Z,17.20
2023-04-27T11:17:41.698Z,17.70
2023-04-27T11:20:09.151Z,17.90
2023-04-27T11:22:45.598Z,18.00
2023-04-27T11:25:12.459Z,18.00
2023-04-27T11:27:40.650Z,17.60
2023-04-27T11:30:18.930Z,17.40
2023-04-27T11:32:45.901Z,17.60
2023-04-27T11:35:13.573Z,17.50
2023-04-27T11:37:40.266Z,17.30
2023-04-27T11:40:08.615Z,17.60
2023-04-27T11:42:35.505Z,17.80
2023-04-27T11:45:07.648Z,18.10
2023-04-27T11:47:35.876Z,18.30
2023-04-27T11:50:08.412Z,17.90
2023-04-27T11:52:37.234Z,17.70
2023-04-27T11:55:05.009Z,17.80
2023-04-27T11:57:33.403Z,18.10
2023-04-27T12:00:02.205Z,18.60
2023-04-27T12:02:40.717Z,18.90
2023-04-27T12:05:09.466Z,18.80
2023-04-27T12:07:36.778Z,18.40
2023-04-27T12:10:03.503Z,18.20
2023-04-27T12:12:30.269Z,18.50
2023-04-27T12:14:57.887Z,18.30
2023-04-27T12:17:24.582Z,18.60
2023-04-27T12:19:51.354Z,18.60
2023-04-27T12:22:18.058Z,18.70
2023-04-27T12:24:44.722Z,19.10
2023-04-27T12:27:12.055Z,18.50
2023-04-27T12:29:39.089Z,18.40
2023-04-27T12:32:06.052Z,18.10
2023-04-27T12:34:33.231Z,18.20
2023-04-27T12:36:59.898Z,18.50
2023-04-27T12:39:26.800Z,18.90
2023-04-27T12:41:53.928Z,18.20
2023-04-27T12:44:21.800Z,18.10
2023-04-27T12:46:48.825Z,18.50
2023-04-27T12:49:16.073Z,18.80
2023-04-27T12:51:43.122Z,19.00
2023-04-27T12:54:11.194Z,19.10
2023-04-27T12:56:38.171Z,19.30
2023-04-27T12:59:06.267Z,19.50
2023-04-27T13:01:33.268Z,19.80
2023-04-27T13:04:01.634Z,19.50
2023-04-27T13:06:29.413Z,19.80
2023-04-27T13:08:56.360Z,19.80
2023-04-27T13:11:24.194Z,20.00
2023-04-27T13:13:50.962Z,20.20
2023-04-27T13:16:19.250Z,20.00
2023-04-27T13:18:49.305Z,19.40
2023-04-27T13:21:16.555Z,18.90
2023-04-27T13:23:43.254Z,19.50
2023-04-27T13:26:10.159Z,20.00
2023-04-27T13:28:36.862Z,20.20
2023-04-27T13:31:04.067Z,20.60
2023-04-27T13:33:32.072Z,20.70
2023-04-27T13:36:02.057Z,20.70
2023-04-27T13:38:28.960Z,20.60
2023-04-27T13:40:55.774Z,20.40
2023-04-27T13:43:22.500Z,20.60
2023-04-27T13:45:50.779Z,20.20
2023-04-27T13:48:17.571Z,19.80
2023-04-27T13:50:44.271Z,19.30
2023-04-27T13:53:11.958Z,19.40
2023-04-27T13:55:39.073Z,19.70
2023-04-27T13:58:05.795Z,19.50
2023-04-27T14:00:34.504Z,19.60
2023-04-27T14:03:04.180Z,19.70
2023-04-27T14:05:32.023Z,19.50
2023-04-27T14:07:58.649Z,19.10
2023-04-27T14:10:25.437Z,19.40
2023-04-27T14:12:52.311Z,18.80
2023-04-27T14:15:19.060Z,19.00
2023-04-27T14:17:45.796Z,19.00
2023-04-27T14:20:12.595Z,19.10
2023-04-27T14:22:39.644Z,19.00
2023-04-27T14:25:06.945Z,18.90
2023-04-27T14:27:33.635Z,18.90
2023-04-27T14:30:00.525Z,19.00
2023-04-27T14:32:27.545Z,19.10
2023-04-27T14:34:54.241Z,18.90
2023-04-27T14:37:20.875Z,19.00
2023-04-27T14:39:47.582Z,19.00
2023-04-27T14:42:14.275Z,19.10
2023-04-27T14:44:41.025Z,19.30
2023-04-27T14:47:07.739Z,19.60
2023-04-27T14:49:34.452Z,19.70
2023-04-27T14:52:04.105Z,19.70
2023-04-27T14:54:30.932Z,19.90
2023-04-27T14:56:58.951Z,20.00
2023-04-27T14:59:26.239Z,19.80
2023-04-27T15:01:53.080Z,19.90
2023-04-27T15:04:20.107Z,20.20
2023-04-27T15:06:46.953Z,20.00
2023-04-27T15:09:13.824Z,19.90
2023-04-27T15:11:41.282Z,20.10
2023-04-27T15:14:08.636Z,19.90
2023-04-27T15:16:35.756Z,19.50
2023-04-27T15:19:03.211Z,18.80
2023-04-27T15:21:31.250Z,18.10
2023-04-27T15:23:57.915Z,17.80
2023-04-27T15:26:26.740Z,17.40
2023-04-27T15:28:54.644Z,17.30
2023-04-27T15:31:22.056Z,17.30
2023-04-27T15:33:48.763Z,17.50
2023-04-27T15:36:15.787Z,17.50
2023-04-27T15:38:42.495Z,17.50
2023-04-27T15:41:09.279Z,17.60
2023-04-27T15:43:36.408Z,17.60
2023-04-27T15:46:05.368Z,17.80
2023-04-27T15:48:32.341Z,18.00
2023-04-27T15:50:59.039Z,17.60
2023-04-27T15:53:26.245Z,17.40
2023-04-27T15:55:52.911Z,17.50
2023-04-27T15:58:19.538Z,17.50
2023-04-27T16:00:46.282Z,17.60
2023-04-27T16:03:14.334Z,17.40
2023-04-27T16:05:41.313Z,17.30
2023-04-27T16:08:07.997Z,17.30
2023-04-27T16:10:34.711Z,17.20
2023-04-27T16:13:01.369Z,17.20
2023-04-27T16:15:28.088Z,17.30
2023-04-27T16:17:54.745Z,17.20
2023-04-27T16:20:22.536Z,17.30
2023-04-27T16:22:49.244Z,17.30
2023-04-27T16:25:15.947Z,17.40
2023-04-27T16:27:43.398Z,17.50
2023-04-27T16:30:10.333Z,17.40
2023-04-27T16:32:37.718Z,17.30
2023-04-27T16:35:04.668Z,17.50
2023-04-27T16:37:31.354Z,17.30
2023-04-27T16:40:05.661Z,17.50
2023-04-27T16:42:32.691Z,17.50
2023-04-27T16:45:02.046Z,17.60
2023-04-27T16:47:29.087Z,17.50
2023-04-27T16:49:55.960Z,17.50
2023-04-27T16:52:22.652Z,17.40
2023-04-27T16:54:49.377Z,17.40
2023-04-27T16:57:16.278Z,17.30
2023-04-27T16:59:43.000Z,17.30
2023-04-27T17:02:22.964Z,17.00
2023-04-27T17:04:51.145Z,16.90
2023-04-27T17:07:17.838Z,17.00
2023-04-27T17:09:44.456Z,16.70
2023-04-27T17:12:13.267Z,16.70
2023-04-27T17:14:40.218Z,16.60
2023-04-27T17:17:07.274Z,16.40
2023-04-27T17:19:34.046Z,16.60
2023-04-27T17:22:00.863Z,16.60
2023-04-27T17:24:27.681Z,16.70
2023-04-27T17:26:54.377Z,16.40
2023-04-27T17:29:21.614Z,16.50
2023-04-27T17:31:49.172Z,16.50
2023-04-27T17:34:16.272Z,16.50
2023-04-27T17:36:42.944Z,16.50
2023-04-27T17:39:09.602Z,16.60
2023-04-27T17:41:37.264Z,16.60
2023-04-27T17:44:04.536Z,16.50
2023-04-27T17:46:31.495Z,16.50
2023-04-27T17:48:58.196Z,16.40
2023-04-27T17:51:24.892Z,16.20
2023-04-27T17:53:51.515Z,16.20
2023-04-27T17:56:18.193Z,16.20
2023-04-27T17:58:45.004Z,16.20
2023-04-27T18:01:13.295Z,16.20
2023-04-27T18:03:41.820Z,16.10
2023-04-27T18:06:09.060Z,16.00
2023-04-27T18:08:35.868Z,15.90
2023-04-27T18:11:02.604Z,15.80
2023-04-27T18:13:31.716Z,15.80
2023-04-27T18:15:58.909Z,15.80
2023-04-27T18:18:26.728Z,15.80
2023-04-27T18:20:53.452Z,15.40
2023-04-27T18:23:20.508Z,15.40
2023-04-27T18:25:47.191Z,15.40
2023-04-27T18:28:13.841Z,15.40
2023-04-27T18:30:41.147Z,15.20
2023-04-27T18:33:08.057Z,15.10
2023-04-27T18:35:34.965Z,15.00
2023-04-27T18:38:01.691Z,14.80
2023-04-27T18:40:28.441Z,14.70
2023-04-27T18:42:55.089Z,14.70
2023-04-27T18:45:21.787Z,14.80
2023-04-27T18:47:48.479Z,14.60
2023-04-27T18:50:15.151Z,14.60
2023-04-27T18:52:41.847Z,14.60
2023-04-27T18:55:09.335Z,14.50
2023-04-27T18:57:36.193Z,14.50
2023-04-27T19:00:05.690Z,14.50
2023-04-27T19:02:33.129Z,14.40
2023-04-27T19:05:10.947Z,14.30
2023-04-27T19:07:39.381Z,14.30
2023-04-27T19:10:07.016Z,14.20
2023-04-27T19:12:33.728Z,14.20
2023-04-27T19:15:00.508Z,14.10
2023-04-27T19:17:27.373Z,14.00
2023-04-27T19:19:54.186Z,13.80
2023-04-27T19:22:20.963Z,13.70
2023-04-27T19:24:48.098Z,13.70
2023-04-27T19:27:14.908Z,13.70
2023-04-27T19:29:50.036Z,13.70
2023-04-27T19:32:16.918Z,13.70
2023-04-27T19:34:43.794Z,13.60
2023-04-27T19:37:10.553Z,13.60
2023-04-27T19:39:37.192Z,13.50
2023-04-27T19:42:04.295Z,13.40
2023-04-27T19:44:31.108Z,13.40
2023-04-27T19:46:57.792Z,13.20
2023-04-27T19:49:24.474Z,13.30
2023-04-27T19:51:51.121Z,13.30
2023-04-27T19:54:18.189Z,13.20
2023-04-27T19:56:45.018Z,13.30
2023-04-27T19:59:12.175Z,13.30
2023-04-27T20:01:38.889Z,13.30
2023-04-27T20:04:05.914Z,13.20
2023-04-27T20:06:33.418Z,13.20
2023-04-27T20:09:00.321Z,13.30
2023-04-27T20:11:26.981Z,13.20
2023-04-27T20:13:53.599Z,13.10
2023-04-27T20:16:21.412Z,13.10
2023-04-27T20:18:49.584Z,13.10
2023-04-27T20:21:16.310Z,13.00
2023-04-27T20:23:43.082Z,13.00
2023-04-27T20:26:09.807Z,13.10
2023-04-27T20:28:36.467Z,13.10
2023-04-27T20:31:03.131Z,13.00
2023-04-27T20:33:29.789Z,12.90
2023-04-27T20:36:01.144Z,12.90
2023-04-27T20:38:33.238Z,12.80
2023-04-27T20:41:01.043Z,12.80
2023-04-27T20:43:27.850Z,12.70
2023-04-27T20:45:54.585Z,12.70
2023-04-27T20:48:21.442Z,12.70
2023-04-27T20:50:48.166Z,12.80
2023-04-27T20:53:14.939Z,12.80
2023-04-27T20:55:41.601Z,12.70
2023-04-27T20:58:08.231Z,12.60
2023-04-27T21:00:34.957Z,12.70
2023-04-27T21:03:01.787Z,12.70
2023-04-27T21:05:30.010Z,12.60
2023-04-27T21:07:58.152Z,12.60
2023-04-27T21:10:24.839Z,12.50
2023-04-27T21:12:51.483Z,12.60
2023-04-27T21:15:18.225Z,12.60
2023-04-27T21:17:44.985Z,12.50
2023-04-27T21:20:12.249Z,12.40
2023-04-27T21:22:38.912Z,12.50
2023-04-27T21:25:06.028Z,12.40
2023-04-27T21:27:32.771Z,12.50
2023-04-27T21:29:59.477Z,12.50
2023-04-27T21:32:26.136Z,12.50
2023-04-27T21:34:52.804Z,12.50
2023-04-27T21:37:19.741Z,12.50
2023-04-27T21:39:46.419Z,12.40
2023-04-27T21:42:13.115Z,12.40
2023-04-27T21:44:39.743Z,12.40
2023-04-27T21:47:06.780Z,12.30
2023-04-27T21:49:33.783Z,12.40
2023-04-27T21:52:00.468Z,12.40
2023-04-27T21:54:27.128Z,12.40
2023-04-27T21:56:53.800Z,12.30
2023-04-27T21:59:20.515Z,12.40
2023-04-27T22:01:47.235Z,12.30
2023-04-27T22:04:14.289Z,12.30
2023-04-27T22:06:41.220Z,12.40
2023-04-27T22:09:08.324Z,12.40
2023-04-27T22:11:35.024Z,12.30
2023-04-27T22:14:01.714Z,12.30
2023-04-27T22:16:30.134Z,12.30
2023-04-27T22:18:57.353Z,12.30
2023-04-27T22:21:24.164Z,12.30
2023-04-27T22:23:51.067Z,12.40
2023-04-27T22:26:17.701Z,12.40
2023-04-27T22:28:44.395Z,12.40
2023-04-27T22:31:11.189Z,12.40
2023-04-27T22:33:37.872Z,12.40
2023-04-27T22:36:05.753Z,12.40
2023-04-27T22:38:32.468Z,12.30
2023-04-27T22:40:59.158Z,12.40
2023-04-27T22:43:25.787Z,12.30
2023-04-27T22:45:52.435Z,12.20
2023-04-27T22:48:19.051Z,12.10
2023-04-27T22:50:45.754Z,11.90
2023-04-27T22:53:12.435Z,12.00
2023-04-27T22:55:39.088Z,12.00
2023-04-27T22:58:05.983Z,12.00
2023-04-27T23:00:32.881Z,12.00
2023-04-27T23:02:59.662Z,12.00
2023-04-27T23:05:26.561Z,12.10
2023-04-27T23:07:53.219Z,12.20
2023-04-27T23:10:19.891Z,12.20
2023-04-27T23:12:47.228Z,12.20
2023-04-27T23:15:15.156Z,12.00
2023-04-27T23:17:41.951Z,11.90
2023-04-27T23:20:20.477Z,11.80
2023-04-27T23:22:53.952Z,11.90
2023-04-27T23:25:20.635Z,11.90
2023-04-27T23:27:48.096Z,11.90
2023-04-27T23:30:16.237Z,11.90
2023-04-27T23:32:43.085Z,12.00
2023-04-27T23:35:09.846Z,12.00
2023-04-27T23:37:36.499Z,12.00
2023-04-27T23:40:04.075Z,11.90
2023-04-27T23:42:30.737Z,11.90
2023-04-27T23:44:57.571Z,11.80
2023-04-27T23:47:24.276Z,11.80
2023-04-27T23:49:50.982Z,11.70
2023-04-27T23:52:17.623Z,11.70
2023-04-27T23:54:44.235Z,11.60
2023-04-27T23:57:11.057Z,11.70
2023-04-27T23:59:37.681Z,11.70
